Time;durP1;ratioP1;P1;durP2;ratioP2;P2;SDS_P1;SDS_P2;PMS_P1;PMS_P2;Temp;Humidity;BMP_temperature;BMP_pressure;BME280_temperature;BME280_humidity;BME280_pressure;Samples;Min_cycle;Max_cycle;Signal;HPM_P1;HPM_P2
2022/03/10 00:02:13;;;;;;;20.13;12.25;;;6.70;68.50;;;;;;5032866;28;20056;-63
2022/03/10 00:04:38;;;;;;;19.65;11.73;;;6.60;68.50;;;;;;5026301;28;20060;-63
2022/03/10 00:07:05;;;;;;;21.05;11.40;;;6.70;68.70;;;;;;5032649;28;20465;-63
2022/03/10 00:09:32;;;;;;;18.35;12.07;;;6.60;68.70;;;;;;5023544;28;20504;-63
2022/03/10 00:11:58;;;;;;;25.65;12.95;;;6.60;68.90;;;;;;5013126;28;20030;-63
2022/03/10 00:14:24;;;;;;;18.48;11.77;;;6.60;69.00;;;;;;5033751;28;20033;-63
2022/03/10 00:16:49;;;;;;;22.85;12.05;;;6.60;69.20;;;;;;5032742;28;20018;-63
2022/03/10 00:19:16;;;;;;;20.80;12.02;;;6.60;69.30;;;;;;5031832;28;20353;-63
2022/03/10 00:21:48;;;;;;;18.00;11.73;;;6.50;69.30;;;;;;5032057;28;20033;-63
2022/03/10 00:24:15;;;;;;;25.15;13.70;;;6.50;69.40;;;;;;5030885;28;20042;-63
2022/03/10 00:26:43;;;;;;;21.30;12.93;;;6.50;69.50;;;;;;5032760;28;20018;-62
2022/03/10 00:29:09;;;;;;;23.10;12.82;;;6.50;69.80;;;;;;5031369;28;20056;-64
2022/03/10 00:31:34;;;;;;;21.90;13.73;;;6.50;69.90;;;;;;5032201;28;20033;-63
2022/03/10 00:34:01;;;;;;;22.83;12.90;;;6.40;70.00;;;;;;5026592;28;20461;-63
2022/03/10 00:36:26;;;;;;;21.13;12.77;;;6.40;70.10;;;;;;5016909;28;20061;-64
2022/03/10 00:38:52;;;;;;;23.92;13.77;;;6.40;70.40;;;;;;5028575;28;20531;-63
2022/03/10 00:41:18;;;;;;;20.33;12.45;;;6.30;70.40;;;;;;5028418;28;20672;-63
2022/03/10 00:43:43;;;;;;;23.38;13.88;;;6.20;70.50;;;;;;5030374;28;20041;-63
2022/03/10 00:46:09;;;;;;;23.15;12.35;;;6.30;70.70;;;;;;5032088;28;20075;-63
2022/03/10 00:48:36;;;;;;;21.13;12.50;;;6.20;70.80;;;;;;5033336;28;20029;-63
2022/03/10 00:51:02;;;;;;;22.90;12.10;;;6.20;70.90;;;;;;5029917;28;20476;-63
2022/03/10 00:53:28;;;;;;;22.38;12.45;;;6.20;71.00;;;;;;5030836;28;20036;-63
2022/03/10 00:55:53;;;;;;;21.55;13.68;;;6.20;71.20;;;;;;5029892;28;20452;-63
2022/03/10 00:58:19;;;;;;;21.08;13.18;;;6.10;71.10;;;;;;5031893;28;20101;-63
2022/03/10 01:00:45;;;;;;;23.40;13.02;;;6.10;71.30;;;;;;5030893;28;20139;-63
2022/03/10 01:03:10;;;;;;;21.42;13.48;;;6.00;71.40;;;;;;5031167;28;20095;-63
2022/03/10 01:05:36;;;;;;;23.05;12.88;;;6.00;71.50;;;;;;5026855;28;20459;-63
2022/03/10 01:08:01;;;;;;;21.98;13.07;;;5.90;71.60;;;;;;5031899;28;20025;-63
2022/03/10 01:10:27;;;;;;;24.90;15.88;;;5.90;71.70;;;;;;5025377;28;20041;-63
2022/03/10 01:12:53;;;;;;;23.33;14.38;;;5.90;71.80;;;;;;5011416;28;20026;-64
2022/03/10 01:15:22;;;;;;;21.75;13.50;;;5.90;72.10;;;;;;5026060;28;20112;-64
2022/03/10 01:17:49;;;;;;;22.52;13.90;;;5.90;72.30;;;;;;5024832;28;20131;-63
2022/03/10 01:20:14;;;;;;;23.45;14.07;;;5.90;72.40;;;;;;5020839;28;20025;-64
2022/03/10 01:22:40;;;;;;;26.42;15.25;;;5.90;72.40;;;;;;5031457;28;20040;-63
2022/03/10 01:25:07;;;;;;;24.60;14.30;;;5.90;72.60;;;;;;5029571;28;20041;-63
2022/03/10 01:27:33;;;;;;;22.73;13.88;;;5.80;72.70;;;;;;5029965;28;20124;-63
2022/03/10 01:29:59;;;;;;;23.85;14.82;;;5.80;72.80;;;;;;5029673;28;20120;-63
2022/03/10 01:32:25;;;;;;;25.55;14.10;;;5.80;72.90;;;;;;5030980;28;20575;-63
2022/03/10 01:34:51;;;;;;;21.90;14.65;;;5.80;73.10;;;;;;5029051;28;20120;-64
2022/03/10 01:37:16;;;;;;;25.92;14.40;;;5.80;73.30;;;;;;5029866;28;20029;-63
2022/03/10 01:39:42;;;;;;;25.30;14.25;;;5.80;73.40;;;;;;5029519;28;20021;-64
2022/03/10 01:42:07;;;;;;;22.83;14.23;;;5.70;73.50;;;;;;5030758;28;20524;-64
2022/03/10 01:44:34;;;;;;;24.05;14.07;;;5.70;73.70;;;;;;5029897;28;20045;-63
2022/03/10 01:47:01;;;;;;;21.85;13.48;;;5.70;73.80;;;;;;5031401;28;20035;-64
2022/03/10 01:49:27;;;;;;;25.38;14.43;;;5.60;73.90;;;;;;5029826;28;20083;-65
2022/03/10 01:51:53;;;;;;;22.10;14.02;;;5.70;74.10;;;;;;5030971;28;20025;-63
2022/03/10 01:54:18;;;;;;;24.73;13.93;;;5.60;74.20;;;;;;5028952;28;20095;-63
2022/03/10 01:56:44;;;;;;;28.33;14.95;;;5.60;74.30;;;;;;5030963;28;20040;-63
2022/03/10 01:59:11;;;;;;;27.05;14.48;;;5.60;74.40;;;;;;5025108;28;20057;-63
2022/03/10 02:01:36;;;;;;;28.05;15.27;;;5.60;74.60;;;;;;5029198;28;20038;-63
2022/03/10 02:04:02;;;;;;;24.67;13.80;;;5.60;74.60;;;;;;5029285;28;20045;-63
2022/03/10 02:06:28;;;;;;;28.55;15.27;;;5.50;74.70;;;;;;5029280;28;20025;-63
2022/03/10 02:11:41;;;;;;;24.60;13.55;;;5.40;75.20;;;;;;5028698;28;20030;-64
2022/03/10 02:19:35;;;;;;;25.08;14.77;;;5.30;75.40;;;;;;5029645;28;20087;-64
2022/03/10 02:22:07;;;;;;;24.30;14.32;;;5.30;75.50;;;;;;5031216;28;20021;-63
2022/03/10 02:24:35;;;;;;;25.15;14.95;;;5.30;75.90;;;;;;5022499;28;20073;-62
2022/03/10 02:27:37;;;;;;;27.80;14.50;;;5.20;75.90;;;;;;5017921;28;20079;-63
2022/03/10 02:30:03;;;;;;;28.05;14.77;;;5.20;76.10;;;;;;5025372;28;20049;-63
2022/03/10 02:32:29;;;;;;;27.63;15.07;;;5.20;76.10;;;;;;5034494;28;20132;-63
2022/03/10 02:34:54;;;;;;;28.77;15.70;;;5.20;76.30;;;;;;5033821;28;20057;-63
2022/03/10 02:37:21;;;;;;;30.20;16.75;;;5.10;76.50;;;;;;5034617;28;20025;-63
2022/03/10 02:39:47;;;;;;;28.85;16.38;;;5.20;76.70;;;;;;5033223;28;20091;-63
2022/03/10 02:42:13;;;;;;;30.30;16.45;;;5.10;76.90;;;;;;5032774;28;20053;-63
2022/03/10 02:44:48;;;;;;;31.63;16.67;;;5.10;77.10;;;;;;5018678;28;20054;-63
2022/03/10 02:47:14;;;;;;;;;;;5.10;77.40;;;;;;5018171;28;20021;-63
2022/03/10 02:49:41;;;;;;;24.52;13.45;;;5.10;76.70;;;;;;5026344;28;19909;-63
2022/03/10 02:52:07;;;;;;;27.77;15.98;;;5.10;76.90;;;;;;5034178;28;20033;-64
2022/03/10 02:54:33;;;;;;;23.60;14.70;;;5.10;77.20;;;;;;5031846;28;20457;-64
2022/03/10 02:56:59;;;;;;;27.10;14.95;;;5.00;77.40;;;;;;5034069;28;20068;-62
2022/03/10 02:59:25;;;;;;;28.52;15.40;;;5.10;77.60;;;;;;5031954;28;20037;-64
2022/03/10 03:01:50;;;;;;;21.38;14.43;;;5.00;77.70;;;;;;5034188;28;20091;-64
2022/03/10 03:04:16;;;;;;;26.95;14.75;;;5.10;77.90;;;;;;5031365;28;20147;-64
2022/03/10 03:06:42;;;;;;;28.48;16.20;;;5.00;77.90;;;;;;5033047;28;20061;-63
2022/03/10 03:09:07;;;;;;;26.73;14.65;;;5.00;78.10;;;;;;5032374;28;20037;-64
2022/03/10 03:11:33;;;;;;;28.25;15.73;;;5.10;78.10;;;;;;5033634;28;20039;-63
2022/03/10 03:13:59;;;;;;;31.52;15.45;;;5.00;78.10;;;;;;5031434;28;20061;-63
2022/03/10 03:16:25;;;;;;;24.48;15.32;;;5.00;78.30;;;;;;5033982;28;20136;-64
2022/03/10 03:18:51;;;;;;;26.90;15.60;;;5.00;78.40;;;;;;5032123;28;20030;-64
2022/03/10 03:21:17;;;;;;;28.38;15.82;;;5.00;78.40;;;;;;5033640;28;20038;-63
2022/03/10 03:23:43;;;;;;;28.55;15.57;;;5.00;78.50;;;;;;5031627;28;20053;-63
2022/03/10 03:26:08;;;;;;;25.50;15.40;;;5.00;78.70;;;;;;5032588;28;20029;-64
2022/03/10 03:28:34;;;;;;;26.88;15.35;;;5.00;78.80;;;;;;5031999;28;20068;-63
2022/03/10 03:30:59;;;;;;;28.27;16.23;;;5.00;78.90;;;;;;5052842;28;20040;-63
2022/03/10 03:33:25;;;;;;;30.80;16.05;;;4.90;78.90;;;;;;5037322;28;20026;-63
2022/03/10 03:35:50;;;;;;;31.10;17.48;;;5.00;79.10;;;;;;5031912;28;20078;-63
2022/03/10 03:38:16;;;;;;;30.50;15.38;;;4.90;79.10;;;;;;5033341;28;20113;-63
2022/03/10 03:40:41;;;;;;;27.98;15.82;;;4.90;79.10;;;;;;5031663;28;20026;-63
2022/03/10 03:43:07;;;;;;;28.15;16.42;;;4.90;79.30;;;;;;5029496;28;20034;-63
2022/03/10 03:45:32;;;;;;;28.35;15.70;;;4.90;79.30;;;;;;5030515;28;20221;-63
2022/03/10 03:47:58;;;;;;;30.45;16.13;;;4.90;79.40;;;;;;5032945;28;20825;-64
2022/03/10 03:50:23;;;;;;;26.70;15.65;;;4.90;79.50;;;;;;5016817;28;20026;-62
2022/03/10 03:52:49;;;;;;;30.48;15.57;;;4.90;79.60;;;;;;5013858;28;20117;-63
2022/03/10 03:55:15;;;;;;;29.20;16.17;;;4.80;79.50;;;;;;5032308;28;20490;-63
2022/03/10 03:57:40;;;;;;;29.67;16.15;;;4.80;79.70;;;;;;5032793;28;20025;-64
2022/03/10 04:00:09;;;;;;;29.33;16.42;;;4.80;79.80;;;;;;5031253;28;20033;-63
2022/03/10 04:02:36;;;;;;;28.27;15.52;;;4.80;79.90;;;;;;5032169;28;20037;-64
2022/03/10 04:05:02;;;;;;;29.00;16.65;;;4.70;79.90;;;;;;5020221;28;20121;-63
2022/03/10 04:07:28;;;;;;;27.05;16.67;;;4.70;80.10;;;;;;5028138;28;20375;-65
2022/03/10 04:09:53;;;;;;;30.50;16.95;;;4.70;80.30;;;;;;5027750;28;20036;-65
2022/03/10 04:12:19;;;;;;;28.45;16.75;;;4.70;80.40;;;;;;5025818;28;20033;-64
2022/03/10 04:14:44;;;;;;;29.88;16.27;;;4.70;80.50;;;;;;5031564;28;20433;-64
2022/03/10 04:17:10;;;;;;;28.83;15.98;;;4.60;80.50;;;;;;5032474;28;20026;-64
2022/03/10 04:19:35;;;;;;;36.25;16.95;;;4.60;80.60;;;;;;5030071;28;20451;-64
2022/03/10 04:22:01;;;;;;;29.92;15.88;;;4.60;80.70;;;;;;5032403;28;20044;-63
2022/03/10 04:24:26;;;;;;;30.85;17.08;;;4.60;80.80;;;;;;5030559;28;20037;-64
2022/03/10 04:26:52;;;;;;;32.33;17.48;;;4.50;80.90;;;;;;5031247;28;20030;-64
2022/03/10 04:29:17;;;;;;;30.02;15.60;;;4.50;80.90;;;;;;5031023;28;20025;-63
2022/03/10 04:31:43;;;;;;;30.40;16.15;;;4.60;81.10;;;;;;5029855;28;20024;-64
2022/03/10 04:34:09;;;;;;;30.50;15.88;;;4.60;81.10;;;;;;5030778;28;20032;-64
2022/03/10 04:36:35;;;;;;;30.75;16.55;;;4.50;81.20;;;;;;5031516;28;20469;-64
2022/03/10 04:39:01;;;;;;;31.30;16.42;;;4.50;81.40;;;;;;5015585;28;20113;-64
2022/03/10 04:41:26;;;;;;;30.52;16.33;;;4.50;81.60;;;;;;5032247;28;20435;-64
2022/03/10 04:43:52;;;;;;;29.23;16.52;;;4.50;81.70;;;;;;5028728;28;20033;-63
2022/03/10 04:46:18;;;;;;;33.80;15.90;;;4.40;81.70;;;;;;5012759;28;20033;-64
2022/03/10 04:48:43;;;;;;;32.28;16.63;;;4.50;81.90;;;;;;5026007;28;20049;-63
2022/03/10 04:51:09;;;;;;;31.83;16.38;;;4.40;81.90;;;;;;5012248;28;20114;-62
2022/03/10 04:53:34;;;;;;;28.15;16.40;;;4.40;82.00;;;;;;5024869;28;20416;-64
2022/03/10 04:56:00;;;;;;;29.15;15.88;;;4.40;82.10;;;;;;5024288;28;20079;-63
2022/03/10 04:58:25;;;;;;;29.02;15.93;;;4.40;82.30;;;;;;5031351;28;20047;-63
2022/03/10 05:00:51;;;;;;;30.52;16.30;;;4.30;82.40;;;;;;5029918;28;20033;-64
2022/03/10 05:03:16;;;;;;;29.88;16.20;;;4.40;82.50;;;;;;5016992;28;20050;-63
2022/03/10 05:05:42;;;;;;;34.08;18.50;;;4.40;82.60;;;;;;5024482;28;20038;-63
2022/03/10 05:08:07;;;;;;;31.80;16.45;;;4.30;82.60;;;;;;5030889;28;20041;-63
2022/03/10 05:10:33;;;;;;;33.58;16.65;;;4.40;82.80;;;;;;5030089;28;20036;-63
2022/03/10 05:13:02;;;;;;;28.15;16.38;;;4.30;82.70;;;;;;5031411;28;20021;-62
2022/03/10 05:15:30;;;;;;;31.02;16.75;;;4.30;82.80;;;;;;5030083;28;20111;-63
2022/03/10 05:17:57;;;;;;;28.30;15.48;;;4.30;82.90;;;;;;5031519;28;20407;-64
2022/03/10 05:20:25;;;;;;;29.48;16.70;;;4.30;83.10;;;;;;5022090;28;20045;-63
2022/03/10 05:22:52;;;;;;;30.05;16.17;;;4.30;83.20;;;;;;5018692;28;20099;-64
2022/03/10 05:25:19;;;;;;;34.05;18.13;;;4.30;83.30;;;;;;5030184;28;20369;-64
2022/03/10 05:27:46;;;;;;;31.70;17.40;;;4.20;83.50;;;;;;5030101;28;20425;-64
2022/03/10 05:30:13;;;;;;;35.47;17.70;;;4.20;84.00;;;;;;5030569;28;20087;-63
2022/03/10 05:32:39;;;;;;;31.40;17.92;;;4.20;83.50;;;;;;5030867;28;20036;-63
2022/03/10 05:35:07;;;;;;;31.65;16.65;;;4.20;83.60;;;;;;5030188;28;20033;-63
2022/03/10 05:37:36;;;;;;;29.13;16.52;;;4.20;83.70;;;;;;5030841;28;20519;-64
2022/03/10 05:40:04;;;;;;;29.83;16.63;;;4.20;83.80;;;;;;5029944;28;20037;-63
2022/03/10 05:42:30;;;;;;;32.70;18.58;;;4.20;83.80;;;;;;5030527;28;20469;-64
2022/03/10 05:44:55;;;;;;;33.95;17.23;;;4.20;84.00;;;;;;5029994;28;20035;-64
2022/03/10 05:47:21;;;;;;;35.65;18.02;;;4.10;84.00;;;;;;5028887;28;20034;-63
2022/03/10 05:49:46;;;;;;;31.92;17.48;;;4.10;84.00;;;;;;5029589;28;20072;-63
2022/03/10 05:52:12;;;;;;;35.10;18.05;;;4.10;84.30;;;;;;5030932;28;20025;-64
2022/03/10 05:54:37;;;;;;;35.67;19.00;;;4.10;84.30;;;;;;5029786;28;20098;-63
2022/03/10 05:57:03;;;;;;;34.33;19.27;;;4.00;84.40;;;;;;5023882;28;20030;-64
2022/03/10 05:59:28;;;;;;;29.35;16.98;;;4.00;84.60;;;;;;5017939;28;20033;-63
2022/03/10 06:01:54;;;;;;;36.97;18.70;;;4.00;84.60;;;;;;5030732;28;20439;-64
2022/03/10 06:04:19;;;;;;;35.05;18.75;;;4.00;84.80;;;;;;5025667;28;20061;-64
2022/03/10 06:06:45;;;;;;;33.53;18.55;;;4.00;84.80;;;;;;5027700;28;20045;-63
2022/03/10 06:09:11;;;;;;;40.22;19.48;;;4.00;85.00;;;;;;5026108;28;20029;-63
2022/03/10 06:11:37;;;;;;;33.53;18.80;;;4.00;85.10;;;;;;5030634;28;20117;-64
2022/03/10 06:14:02;;;;;;;33.42;17.60;;;4.00;85.30;;;;;;5029747;28;20116;-63
2022/03/10 06:16:28;;;;;;;36.08;18.20;;;4.00;85.50;;;;;;5030644;28;20017;-63
2022/03/10 06:18:53;;;;;;;34.17;19.77;;;4.00;85.40;;;;;;5029027;28;20477;-64
2022/03/10 06:21:21;;;;;;;37.10;20.02;;;3.90;85.50;;;;;;5030383;28;20029;-64
2022/03/10 06:23:47;;;;;;;34.85;19.38;;;4.00;85.70;;;;;;5029473;28;20084;-63
2022/03/10 06:26:12;;;;;;;39.15;19.75;;;4.00;85.80;;;;;;5030550;28;20516;-64
2022/03/10 06:28:38;;;;;;;38.72;21.05;;;4.00;85.90;;;;;;5029453;28;20029;-66
2022/03/10 06:31:04;;;;;;;33.67;18.33;;;4.00;86.00;;;;;;5016935;28;20503;-64
2022/03/10 06:33:29;;;;;;;32.88;18.85;;;4.00;86.20;;;;;;5043773;28;20108;-64
2022/03/10 06:35:55;;;;;;;32.28;18.48;;;4.00;86.20;;;;;;5025656;28;20029;-63
2022/03/10 06:38:20;;;;;;;35.83;17.83;;;4.10;86.60;;;;;;5012648;28;20509;-64
2022/03/10 06:40:46;;;;;;;32.83;17.92;;;4.00;86.70;;;;;;5026498;28;20022;-63
2022/03/10 06:43:11;;;;;;;33.75;18.45;;;4.10;86.80;;;;;;5027758;28;20844;-63
2022/03/10 06:45:37;;;;;;;34.10;17.60;;;4.00;86.70;;;;;;5023046;28;20038;-64
2022/03/10 06:48:02;;;;;;;36.58;19.13;;;4.10;86.70;;;;;;5028188;28;20018;-64
2022/03/10 06:50:28;;;;;;;33.38;18.00;;;4.10;86.90;;;;;;5027680;28;20029;-64
2022/03/10 06:52:56;;;;;;;36.10;19.02;;;4.10;87.20;;;;;;5029649;28;20115;-64
2022/03/10 06:55:23;;;;;;;33.40;18.20;;;4.10;87.30;;;;;;5024401;28;20041;-63
2022/03/10 06:57:48;;;;;;;35.78;19.48;;;4.20;87.20;;;;;;5026656;28;20036;-63
2022/03/10 07:00:14;;;;;;;33.63;18.08;;;4.20;87.10;;;;;;5020834;28;20025;-63
2022/03/10 07:02:39;;;;;;;36.75;19.50;;;4.20;87.20;;;;;;5027126;28;20113;-64
2022/03/10 07:05:07;;;;;;;35.10;19.77;;;4.30;87.20;;;;;;5020660;28;20377;-64
2022/03/10 07:07:32;;;;;;;37.95;19.10;;;4.30;87.10;;;;;;5015764;28;20389;-62
2022/03/10 07:09:58;;;;;;;37.05;19.65;;;4.30;87.40;;;;;;5028200;28;20112;-63
2022/03/10 07:12:25;;;;;;;35.58;19.75;;;4.40;87.40;;;;;;5013724;28;20038;-64
2022/03/10 07:14:51;;;;;;;35.80;19.42;;;4.40;87.40;;;;;;5020826;28;20037;-64
2022/03/10 07:17:16;;;;;;;36.65;19.90;;;4.40;87.40;;;;;;5013903;28;20144;-64
2022/03/10 07:19:42;;;;;;;34.92;18.58;;;4.50;87.60;;;;;;5040121;28;20032;-63
2022/03/10 07:22:08;;;;;;;39.55;19.15;;;4.50;87.60;;;;;;5033034;28;20036;-63
2022/03/10 07:24:33;;;;;;;34.03;19.05;;;4.60;87.60;;;;;;5030393;28;20045;-64
2022/03/10 07:26:59;;;;;;;32.95;18.10;;;4.60;87.60;;;;;;5016708;28;20033;-64
2022/03/10 07:29:25;;;;;;;37.90;18.40;;;4.70;88.20;;;;;;5031102;28;20402;-64
2022/03/10 07:31:51;;;;;;;35.42;18.60;;;4.70;87.60;;;;;;5031501;28;20034;-64
2022/03/10 07:34:17;;;;;;;34.30;17.98;;;4.80;87.70;;;;;;5031279;28;20140;-63
2022/03/10 07:36:43;;;;;;;33.40;17.65;;;4.90;87.60;;;;;;5017046;28;20044;-63
2022/03/10 07:39:08;;;;;;;30.38;18.33;;;4.90;87.80;;;;;;5028674;28;20037;-63
2022/03/10 07:41:34;;;;;;;36.10;19.50;;;5.00;87.80;;;;;;5023228;28;20076;-63
2022/03/10 07:43:59;;;;;;;29.95;16.35;;;5.00;87.90;;;;;;5030061;28;20044;-63
2022/03/10 07:46:25;;;;;;;40.60;19.17;;;5.10;87.90;;;;;;5030784;28;20040;-63
2022/03/10 07:48:51;;;;;;;34.55;17.02;;;5.10;88.80;;;;;;5027804;28;20033;-64
2022/03/10 07:51:18;;;;;;;33.28;18.08;;;5.20;89.30;;;;;;5013163;28;20034;-64
2022/03/10 07:53:43;;;;;;;31.13;17.52;;;5.40;89.50;;;;;;5014804;28;20128;-63
2022/03/10 07:56:09;;;;;;;34.33;17.60;;;5.40;89.70;;;;;;5021718;28;20022;-63
2022/03/10 07:58:34;;;;;;;32.58;17.45;;;5.50;89.20;;;;;;5018871;28;20389;-63
2022/03/10 08:01:00;;;;;;;31.33;17.80;;;5.60;89.10;;;;;;5025738;28;20022;-63
2022/03/10 08:03:25;;;;;;;33.10;17.20;;;5.70;89.10;;;;;;5023883;28;20577;-63
2022/03/10 08:05:51;;;;;;;32.17;17.23;;;5.70;89.30;;;;;;5023461;28;20037;-63
2022/03/10 08:08:17;;;;;;;33.80;16.55;;;5.80;89.30;;;;;;5021210;28;20374;-64
2022/03/10 08:10:43;;;;;;;32.15;17.75;;;5.80;89.80;;;;;;5020133;28;20389;-63
2022/03/10 08:13:09;;;;;;;30.58;16.40;;;5.90;89.60;;;;;;5017813;28;20018;-63
2022/03/10 08:15:34;;;;;;;34.85;17.60;;;6.00;89.80;;;;;;5017170;28;20034;-63
2022/03/10 08:18:00;;;;;;;32.58;16.90;;;6.00;89.90;;;;;;5025204;28;20029;-63
2022/03/10 08:20:26;;;;;;;31.17;16.63;;;6.10;90.00;;;;;;5022040;28;20053;-63
2022/03/10 08:22:51;;;;;;;28.60;16.30;;;6.20;90.00;;;;;;5023992;28;20469;-63
2022/03/10 08:25:17;;;;;;;32.75;17.50;;;6.30;90.10;;;;;;5023029;28;20118;-63
2022/03/10 08:27:44;;;;;;;28.33;16.60;;;6.40;90.10;;;;;;5031619;28;20184;-63
2022/03/10 08:30:13;;;;;;;31.05;17.88;;;6.40;90.10;;;;;;5029782;28;20477;-63
2022/03/10 08:32:39;;;;;;;31.00;16.75;;;6.50;90.00;;;;;;5026955;28;20477;-64
2022/03/10 08:35:05;;;;;;;28.23;16.45;;;6.50;89.80;;;;;;5031184;28;20084;-63
2022/03/10 08:37:30;;;;;;;31.70;17.60;;;6.60;89.80;;;;;;5021266;28;20026;-64
2022/03/10 08:39:56;;;;;;;33.55;17.60;;;6.60;89.80;;;;;;5027710;28;20832;-64
2022/03/10 08:42:21;;;;;;;31.00;18.25;;;6.70;89.80;;;;;;5027396;28;20022;-64
2022/03/10 08:44:47;;;;;;;32.92;17.13;;;6.70;89.80;;;;;;5021704;28;20477;-63
2022/03/10 08:47:13;;;;;;;29.27;16.10;;;6.80;89.60;;;;;;5023627;28;20247;-64
2022/03/10 08:49:38;;;;;;;32.47;18.70;;;6.90;89.80;;;;;;5019553;28;20029;-65
2022/03/10 08:52:04;;;;;;;29.92;17.10;;;6.90;89.60;;;;;;5026130;28;20596;-64
2022/03/10 08:54:30;;;;;;;29.50;16.83;;;7.00;89.60;;;;;;5020395;28;20049;-63
2022/03/10 08:56:55;;;;;;;33.92;18.05;;;7.10;89.50;;;;;;5030972;28;20107;-64
2022/03/10 08:59:21;;;;;;;36.35;18.50;;;7.10;89.70;;;;;;5027421;28;20033;-64
2022/03/10 09:01:46;;;;;;;33.00;16.77;;;7.10;89.50;;;;;;5027994;28;20095;-64
2022/03/10 09:04:12;;;;;;;30.73;17.95;;;7.20;89.40;;;;;;5026797;28;20061;-63
2022/03/10 09:06:37;;;;;;;28.92;18.13;;;7.20;89.30;;;;;;5024177;28;20022;-64
2022/03/10 09:09:03;;;;;;;31.25;17.75;;;7.30;89.40;;;;;;5025509;28;20060;-64
2022/03/10 09:11:29;;;;;;;32.17;17.25;;;7.30;89.00;;;;;;5030125;28;20512;-65
2022/03/10 09:13:54;;;;;;;29.67;16.60;;;7.30;89.10;;;;;;5029973;28;20022;-65
2022/03/10 09:16:21;;;;;;;30.05;17.00;;;7.40;89.10;;;;;;5048135;28;20021;-65
2022/03/10 09:18:48;;;;;;;32.15;17.83;;;7.40;89.00;;;;;;5022268;28;20021;-64
2022/03/10 09:21:15;;;;;;;30.92;17.38;;;7.40;89.00;;;;;;5029826;28;20551;-64
2022/03/10 09:23:41;;;;;;;32.75;18.08;;;7.40;88.80;;;;;;5030073;28;20052;-65
2022/03/10 09:26:06;;;;;;;25.98;16.45;;;7.50;89.00;;;;;;5018455;28;20105;-63
2022/03/10 09:28:31;;;;;;;29.55;16.08;;;7.50;88.80;;;;;;5031393;28;20029;-65
2022/03/10 09:31:00;;;;;;;27.20;16.33;;;7.60;88.80;;;;;;5011867;28;20053;-65
2022/03/10 09:33:25;;;;;;;30.52;17.40;;;7.60;88.60;;;;;;5010856;28;20049;-64
2022/03/10 09:35:51;;;;;;;32.35;17.23;;;7.60;88.60;;;;;;5011623;28;20577;-64
2022/03/10 09:38:17;;;;;;;30.85;17.73;;;7.70;88.70;;;;;;5015379;28;20469;-66
2022/03/10 09:40:42;;;;;;;29.13;16.42;;;7.80;88.90;;;;;;5024686;28;20463;-65
2022/03/10 09:43:09;;;;;;;29.55;16.75;;;7.90;88.80;;;;;;5024346;28;20033;-65
2022/03/10 09:45:37;;;;;;;32.03;17.15;;;8.00;88.60;;;;;;5025592;28;20476;-65
2022/03/10 09:48:03;;;;;;;30.33;17.08;;;8.00;88.40;;;;;;5011582;28;20033;-65
2022/03/10 09:50:28;;;;;;;27.83;16.85;;;8.10;88.20;;;;;;5026780;28;20045;-65
2022/03/10 09:52:55;;;;;;;31.10;17.38;;;8.10;88.20;;;;;;5026429;28;20026;-64
2022/03/10 09:55:20;;;;;;;30.90;18.30;;;8.10;88.10;;;;;;5014822;28;20036;-65
2022/03/10 09:57:48;;;;;;;28.77;17.23;;;8.20;88.00;;;;;;5012384;28;20397;-64
2022/03/10 10:00:16;;;;;;;29.35;17.77;;;8.20;88.00;;;;;;5014599;28;20083;-65
2022/03/10 10:02:44;;;;;;;27.35;16.95;;;8.30;88.50;;;;;;5030199;28;20046;-65
2022/03/10 10:05:20;;;;;;;27.80;16.17;;;8.30;87.80;;;;;;5027512;28;20029;-65
2022/03/10 10:08:03;;;;;;;26.52;15.95;;;8.40;87.90;;;;;;5013981;28;20026;-65
2022/03/10 10:10:30;;;;;;;28.70;15.35;;;8.40;87.70;;;;;;5018815;28;20030;-65
2022/03/10 10:12:56;;;;;;;29.08;17.00;;;8.50;87.70;;;;;;5029577;28;20033;-65
2022/03/10 10:15:22;;;;;;;28.55;16.83;;;8.60;87.60;;;;;;5025255;28;20021;-64
2022/03/10 10:17:56;;;;;;;24.05;14.52;;;8.60;87.40;;;;;;5026765;28;20467;-65
2022/03/10 10:20:22;;;;;;;24.00;14.43;;;8.70;87.70;;;;;;5025093;28;20021;-65
2022/03/10 10:22:51;;;;;;;25.50;15.93;;;8.70;87.80;;;;;;5029983;28;20034;-64
2022/03/10 10:25:21;;;;;;;24.15;14.13;;;8.80;87.50;;;;;;5028627;28;20122;-65
2022/03/10 10:27:47;;;;;;;22.80;15.57;;;8.90;87.30;;;;;;5029687;28;20048;-64
2022/03/10 10:30:13;;;;;;;25.17;14.95;;;9.00;87.10;;;;;;5032670;28;20025;-65
2022/03/10 10:32:41;;;;;;;25.45;14.23;;;9.10;86.70;;;;;;5025591;28;20080;-67
2022/03/10 10:35:10;;;;;;;25.17;15.32;;;9.20;86.60;;;;;;5027757;28;20516;-67
2022/03/10 10:37:37;;;;;;;25.45;14.45;;;9.30;86.40;;;;;;5026934;28;20029;-67
2022/03/10 10:40:04;;;;;;;23.88;13.85;;;9.40;86.10;;;;;;5019130;28;20038;-67
2022/03/10 10:42:31;;;;;;;25.70;14.77;;;9.50;86.00;;;;;;5015698;28;20131;-68
2022/03/10 10:45:05;;;;;;;25.60;13.82;;;9.60;85.60;;;;;;5029890;28;20037;-66
2022/03/10 10:47:59;;;;;;;23.88;13.48;;;9.70;85.00;;;;;;5030815;28;20412;-69
2022/03/10 10:50:28;;;;;;;20.55;14.63;;;9.90;84.70;;;;;;5027149;28;20025;-68
2022/03/10 10:52:54;;;;;;;21.27;13.18;;;9.90;84.10;;;;;;5024789;28;20117;-68
2022/03/10 10:55:19;;;;;;;19.90;12.73;;;10.00;82.10;;;;;;5015302;28;20169;-68
2022/03/10 10:57:45;;;;;;;20.20;12.48;;;9.90;81.50;;;;;;5014508;28;20385;-67
2022/03/10 11:00:13;;;;;;;19.35;12.77;;;9.90;82.20;;;;;;5020227;28;20050;-66
2022/03/10 11:02:43;;;;;;;22.08;13.02;;;10.10;82.50;;;;;;5026630;28;20037;-66
2022/03/10 11:05:14;;;;;;;21.60;13.68;;;10.20;82.10;;;;;;5015621;28;20059;-66
2022/03/10 11:07:41;;;;;;;20.75;14.55;;;10.30;82.00;;;;;;5021781;28;20201;-65
2022/03/10 11:10:08;;;;;;;19.95;13.68;;;10.40;81.40;;;;;;5014997;28;20547;-65
2022/03/10 11:12:41;;;;;;;22.58;13.00;;;10.40;81.00;;;;;;5027976;28;20383;-65
2022/03/10 11:15:08;;;;;;;21.13;11.60;;;10.40;80.40;;;;;;5017953;28;20049;-66
2022/03/10 11:17:34;;;;;;;16.17;11.30;;;10.40;80.10;;;;;;5023227;28;20390;-65
2022/03/10 11:20:04;;;;;;;15.35;11.20;;;10.40;79.10;;;;;;5025225;28;20017;-65
2022/03/10 11:23:07;;;;;;;16.50;10.77;;;10.40;79.20;;;;;;5032531;28;20446;-65
2022/03/10 11:25:57;;;;;;;17.85;11.20;;;10.40;78.90;;;;;;5023475;28;20162;-65
2022/03/10 11:28:30;;;;;;;16.13;11.77;;;10.50;78.70;;;;;;5026261;28;20037;-64
2022/03/10 11:31:00;;;;;;;16.35;11.02;;;10.50;78.80;;;;;;5019363;28;20048;-65
2022/03/10 11:33:30;;;;;;;17.83;11.07;;;10.50;78.30;;;;;;5016888;28;20030;-65
2022/03/10 11:35:56;;;;;;;15.30;11.18;;;10.60;78.50;;;;;;5028598;28;20383;-65
2022/03/10 11:38:49;;;;;;;16.33;10.90;;;10.70;78.40;;;;;;5027134;28;20022;-66
2022/03/10 11:41:15;;;;;;;15.70;10.40;;;10.70;78.10;;;;;;5022013;28;20052;-65
2022/03/10 11:43:41;;;;;;;18.33;10.70;;;10.70;77.00;;;;;;5028651;28;20029;-65
2022/03/10 11:46:24;;;;;;;18.30;12.80;;;10.70;76.10;;;;;;5028611;28;20415;-65
2022/03/10 11:49:11;;;;;;;17.83;11.70;;;10.60;75.80;;;;;;5017272;28;20026;-65
2022/03/10 11:51:56;;;;;;;14.60;10.27;;;10.50;75.20;;;;;;5027883;28;20030;-65
2022/03/10 11:54:24;;;;;;;15.80;11.02;;;10.40;75.00;;;;;;5015122;28;20064;-65
2022/03/10 11:56:55;;;;;;;17.02;10.35;;;10.30;75.20;;;;;;5018189;28;20439;-65
2022/03/10 11:59:37;;;;;;;16.05;11.90;;;10.30;75.40;;;;;;5027924;28;20047;-65
2022/03/10 12:02:04;;;;;;;16.67;10.95;;;10.30;74.80;;;;;;5036754;28;20037;-65
2022/03/10 12:04:40;;;;;;;14.80;10.07;;;10.20;74.80;;;;;;5031093;28;20053;-65
2022/03/10 12:07:09;;;;;;;16.20;10.50;;;10.20;75.10;;;;;;5048124;28;20376;-65
2022/03/10 12:09:39;;;;;;;16.10;9.82;;;10.20;75.00;;;;;;5031581;28;20373;-64
2022/03/10 12:12:26;;;;;;;15.93;10.40;;;10.20;75.10;;;;;;5032974;28;20025;-64
2022/03/10 12:14:56;;;;;;;13.73;10.10;;;10.30;75.10;;;;;;5013028;28;20033;-64
2022/03/10 12:17:43;;;;;;;16.85;10.23;;;10.40;74.60;;;;;;5012767;28;20551;-64
2022/03/10 12:20:18;;;;;;;15.93;10.52;;;10.40;74.30;;;;;;5028730;28;20021;-65
2022/03/10 12:23:03;;;;;;;14.73;10.00;;;10.40;73.80;;;;;;5018886;28;20034;-64
2022/03/10 12:25:29;;;;;;;14.93;10.07;;;10.40;73.80;;;;;;5028346;28;20125;-64
2022/03/10 12:27:56;;;;;;;18.58;12.60;;;10.30;73.00;;;;;;5032036;28;20512;-64
2022/03/10 12:30:24;;;;;;;14.63;10.32;;;10.30;72.70;;;;;;5031288;28;20511;-64
2022/03/10 12:32:52;;;;;;;15.02;10.73;;;10.30;73.20;;;;;;5022475;28;20096;-63
2022/03/10 12:35:20;;;;;;;16.27;10.93;;;10.30;73.00;;;;;;5026935;28;20053;-66
2022/03/10 12:37:48;;;;;;;17.67;11.60;;;10.30;72.70;;;;;;5020110;28;20443;-64
2022/03/10 12:40:25;;;;;;;17.42;11.77;;;10.30;72.30;;;;;;5030330;28;20041;-63
2022/03/10 12:42:57;;;;;;;16.17;11.00;;;10.20;71.90;;;;;;5026634;28;20485;-63
2022/03/10 12:45:22;;;;;;;32.75;12.52;;;10.20;71.20;;;;;;5022711;28;20597;-64